Weather at Koulamoutou Mabimbi Airport

Public forecast

Using degrees Celsius for public forecast. Weather courtesy of forecast.io.

Closest aviation weather report (METAR) to Koulamoutou Mabimbi Airport

Report is more than 6 hours old.

Closest report is Lastourville Airport, 28.3 nm (52.5 km) NE.

2022/11/14 15:00 (retrieved 2 years ago)

FOOR 141500Z /////KT 9999 TS SCT008 SCT012CB 29/21 Q////

Closest aviation forecast (TAF) to Koulamoutou Mabimbi Airport

Forecast is more than 12 hours old.

Closest forecast is Libreville Leon M'ba International Airport, 206.9 nm (383.2 km) WNW.

2023/02/22 18:00 (retrieved 1 year ago)

TAF FOOL 221700Z 2218/2324 10005KT 9999 SCT012 BKN030 TEMPO 2218/2221 TS BKN012 FEW020CB BKN030 TEMPO 2222/2304 4000 TSRA BKN010 FEW020CB OVC026 TEMPO 2312/2318 TS BKN012 FEW020CB